UNGO2: Muddy Boggy, Unger, OK

                                SHEF ID:       UNGO2     Muddy Boggy Creek near Unger, OK
STATION TYPE:
Regulating: Stage = 39.00, Flow = 17600

PRECIP STAGE STAGE(2) RIV-FLOW BAT-LOAD
in ft ft cfs volt
Ccp-Rev Ccp-Rev Ccp-Rev Ccp-Rev Ccp-Rev
(America/Chicago)
05/04 00:00 0.00 13.46 ---- 970 12.89
05/04 01:00 0.00 13.36 ---- 944 12.89
05/04 02:00 0.00 13.28 ---- 926 12.81
05/04 03:00 0.00 13.19 ---- 904 12.81
05/04 04:00 0.00 13.12 ---- 886 12.81
05/04 05:00 0.00 13.05 ---- 871 12.81
05/04 06:00 0.00 12.97 ---- 852 12.81
05/04 07:00 0.00 12.90 ---- 837 12.81
05/04 08:00 0.00 12.84 ---- 822 12.81
05/04 09:00 0.00 12.78 ---- 808 12.97
05/04 10:00 0.00 12.72 ---- 796 13.44
05/04 11:00 0.00 12.67 ---- 784 13.37
05/04 12:00 0.00 12.61 ---- 770 13.37
05/04 13:00 0.00 12.56 ---- 758 13.21
05/04 14:00 0.00 12.51 ---- 749 13.13
05/04 15:00 0.00 12.46 ---- 737 13.13
05/04 16:00 0.00 12.42 ---- 728 13.05
05/04 17:00 0.00 12.37 ---- 719 13.05
05/04 18:00 0.00 12.32 ---- 707 13.05
05/04 19:00 0.00 12.27 ---- 696 13.05
05/04 20:00 0.00 12.22 ---- 685 13.05
05/04 21:00 0.00 12.18 ---- 678 12.97
05/04 22:00 0.00 12.13 ---- 667 12.97
05/04 23:00 0.00 12.10 ---- 660 12.89
Data processed at Tue 05May2026 04:47 GMT

NOTICE: If you are parsing this page

Please convert to using our Data API. Starting early 2026 we will be migrating to: https://water.usace.army.mil with modern pages rendered in JavaScript. When this migration completes you will no longer be able to scrape this page! CWMSDataAPI (CDA)

Timeseries IDs (TSIDs)

TSIDs used from left to right in the data table
UNGE.Precip-Inc.Total.1Hour.1Hour.Ccp-Rev
UNGE.Stage.Inst.1Hour.0.Ccp-Rev
UNGE.Stage-Alt.Inst.1Hour.0.Ccp-Rev
UNGE.Flow.Inst.1Hour.0.Ccp-Rev
UNGE.Volt-Battery Load.Inst.1Hour.0.Ccp-Rev

                            

All information presented herein is the property of the government of the United States of America and may be revised or deleted at any time without prior notice. Dissemination of this information without the expressed written consent of the Public Affairs Office, Tulsa District U.S. Army Corps of Engineers is strictly prohibited. These data are gathered electronically and, as presented, have NOT undergone any form of quality control. These data are NOT guaranteed to be valid or correct.